createdAt,value
2023-06-10T00:00:29.364Z,19.67
2023-06-10T00:03:53.414Z,19.62
2023-06-10T00:06:56.470Z,19.56
2023-06-10T00:09:59.532Z,19.49
2023-06-10T00:13:03.818Z,19.43
2023-06-10T00:16:08.819Z,19.36
2023-06-10T00:19:15.427Z,19.25
2023-06-10T00:22:18.661Z,19.19
2023-06-10T00:25:21.202Z,19.08
2023-06-10T00:28:23.947Z,18.96
2023-06-10T00:31:27.864Z,18.92
2023-06-10T00:34:33.574Z,18.93
2023-06-10T00:37:38.671Z,18.78
2023-06-10T00:40:43.194Z,18.82
2023-06-10T00:43:45.809Z,18.76
2023-06-10T00:46:51.238Z,18.63
2023-06-10T00:49:54.068Z,18.62
2023-06-10T00:52:57.532Z,18.59
2023-06-10T00:56:00.840Z,18.52
2023-06-10T00:59:05.545Z,18.38
2023-06-10T01:02:08.801Z,18.34
2023-06-10T01:05:14.864Z,18.30
2023-06-10T01:08:30.762Z,18.23
2023-06-10T01:11:44.422Z,18.13
2023-06-10T01:14:47.216Z,17.96
2023-06-10T01:17:56.688Z,17.91
2023-06-10T01:20:59.450Z,17.81
2023-06-10T01:24:02.676Z,17.81
2023-06-10T01:27:10.115Z,17.72
2023-06-10T01:30:17.140Z,17.69
2023-06-10T01:33:28.166Z,17.61
2023-06-10T01:36:33.687Z,17.53
2023-06-10T01:39:40.332Z,17.53
2023-06-10T01:42:45.819Z,17.46
2023-06-10T01:45:52.551Z,17.40
2023-06-10T01:48:55.482Z,17.41
2023-06-10T01:51:58.458Z,17.43
2023-06-10T01:55:01.800Z,17.40
2023-06-10T01:58:04.401Z,17.30
2023-06-10T02:01:08.629Z,17.35
2023-06-10T02:04:13.490Z,17.40
2023-06-10T02:07:16.584Z,17.41
2023-06-10T02:10:21.929Z,17.31
2023-06-10T02:13:24.683Z,17.23
2023-06-10T02:16:33.475Z,17.20
2023-06-10T02:19:37.929Z,17.28
2023-06-10T02:22:40.434Z,17.28
2023-06-10T02:25:44.464Z,17.44
2023-06-10T02:28:46.924Z,17.22
2023-06-10T02:31:51.326Z,17.20
2023-06-10T02:34:54.560Z,17.16
2023-06-10T02:37:59.853Z,17.21
2023-06-10T02:41:02.383Z,17.20
2023-06-10T02:44:05.341Z,17.25
2023-06-10T02:47:08.319Z,17.24
2023-06-10T02:50:13.425Z,17.26
2023-06-10T02:53:27.012Z,17.10
2023-06-10T02:56:37.738Z,17.18
2023-06-10T02:59:44.024Z,17.27
2023-06-10T03:02:47.203Z,17.28
2023-06-10T03:05:50.750Z,17.27
2023-06-10T03:08:55.726Z,17.28
2023-06-10T03:11:58.239Z,17.26
2023-06-10T03:15:01.805Z,17.25
2023-06-10T03:18:08.235Z,17.22
2023-06-10T03:21:12.510Z,17.14
2023-06-10T03:24:16.514Z,17.03
2023-06-10T03:27:20.829Z,17.21
2023-06-10T03:30:29.015Z,17.21
2023-06-10T03:33:32.610Z,17.25
2023-06-10T03:36:35.127Z,17.23
2023-06-10T03:39:38.687Z,17.30
2023-06-10T03:42:45.467Z,17.23
2023-06-10T03:45:52.545Z,17.28
2023-06-10T03:48:55.616Z,17.28
2023-06-10T03:51:58.582Z,17.24
2023-06-10T03:55:01.669Z,17.36
2023-06-10T03:58:04.561Z,17.36
2023-06-10T04:01:08.599Z,17.36
2023-06-10T04:04:17.871Z,17.47
2023-06-10T04:07:21.725Z,17.49
2023-06-10T04:10:24.597Z,17.56
2023-06-10T04:13:27.557Z,17.63
2023-06-10T04:16:35.251Z,17.59
2023-06-10T04:19:38.566Z,17.65
2023-06-10T04:22:41.713Z,17.70
2023-06-10T04:25:44.408Z,17.75
2023-06-10T04:28:48.248Z,17.84
2023-06-10T04:31:51.982Z,17.80
2023-06-10T04:34:55.033Z,17.97
2023-06-10T04:37:57.718Z,17.97
2023-06-10T04:41:01.032Z,17.96
2023-06-10T04:44:06.419Z,18.00
2023-06-10T04:47:10.323Z,18.12
2023-06-10T04:50:13.336Z,18.18
2023-06-10T04:53:16.447Z,18.25
2023-06-10T04:56:23.362Z,18.28
2023-06-10T04:59:26.385Z,18.41
2023-06-10T05:02:28.828Z,18.49
2023-06-10T05:05:31.625Z,18.48
2023-06-10T05:08:34.950Z,18.49
2023-06-10T05:11:37.873Z,18.56
2023-06-10T05:14:40.409Z,18.56
2023-06-10T05:17:43.473Z,18.61
2023-06-10T05:20:45.865Z,18.67
2023-06-10T05:23:49.017Z,18.72
2023-06-10T05:26:51.644Z,18.88
2023-06-10T05:29:54.577Z,18.96
2023-06-10T05:32:57.843Z,19.02
2023-06-10T05:36:00.992Z,19.07
2023-06-10T05:39:04.309Z,19.13
2023-06-10T05:42:08.370Z,19.18
2023-06-10T05:45:13.042Z,19.46
2023-06-10T05:48:15.853Z,19.51
2023-06-10T05:51:18.347Z,19.66
2023-06-10T05:54:21.202Z,19.93
2023-06-10T05:57:23.528Z,20.26
2023-06-10T06:00:26.527Z,20.56
2023-06-10T06:03:30.092Z,20.51
2023-06-10T06:06:33.090Z,20.49
2023-06-10T06:09:35.805Z,20.57
2023-06-10T06:12:38.860Z,20.65
2023-06-10T06:15:41.352Z,20.69
2023-06-10T06:18:44.471Z,20.65
2023-06-10T06:21:46.917Z,20.66
2023-06-10T06:24:51.039Z,20.84
2023-06-10T06:27:53.585Z,20.99
2023-06-10T06:30:59.531Z,21.14
2023-06-10T06:34:02.009Z,21.24
2023-06-10T06:37:05.093Z,21.44
2023-06-10T06:40:10.526Z,21.61
2023-06-10T06:43:13.444Z,21.49
2023-06-10T06:46:26.486Z,21.97
2023-06-10T06:49:36.992Z,22.41
2023-06-10T06:52:39.497Z,22.74
2023-06-10T06:55:42.535Z,22.94
2023-06-10T06:58:45.797Z,23.16
2023-06-10T07:01:48.914Z,23.42
2023-06-10T07:04:51.531Z,23.77
2023-06-10T07:07:56.425Z,24.22
2023-06-10T07:10:58.941Z,24.56
2023-06-10T07:14:02.538Z,24.49
2023-06-10T07:17:05.179Z,24.10
2023-06-10T07:20:08.667Z,24.37
2023-06-10T07:23:11.227Z,24.75
2023-06-10T07:26:14.779Z,25.01
2023-06-10T07:29:17.412Z,25.44
2023-06-10T07:32:22.047Z,25.50
2023-06-10T07:35:26.381Z,25.29
2023-06-10T07:38:29.196Z,25.20
2023-06-10T07:41:31.638Z,25.48
2023-06-10T07:44:34.698Z,25.44
2023-06-10T07:47:38.234Z,25.28
2023-06-10T07:50:41.703Z,25.26
2023-06-10T07:53:44.546Z,25.55
2023-06-10T07:56:47.629Z,25.74
2023-06-10T07:59:50.384Z,26.06
2023-06-10T08:02:53.433Z,26.29
2023-06-10T08:05:56.058Z,26.68
2023-06-10T08:08:59.061Z,26.65
2023-06-10T08:12:01.924Z,26.85
2023-06-10T08:15:06.425Z,26.64
2023-06-10T08:18:09.111Z,27.08
2023-06-10T08:21:12.138Z,27.43
2023-06-10T08:24:16.849Z,27.79
2023-06-10T08:27:19.750Z,27.90
2023-06-10T08:30:22.177Z,27.71
2023-06-10T08:33:25.117Z,27.63
2023-06-10T08:36:28.526Z,27.59
2023-06-10T08:39:34.113Z,27.61
2023-06-10T08:42:42.199Z,27.82
2023-06-10T08:45:55.238Z,27.96
2023-06-10T08:49:05.277Z,27.95
2023-06-10T08:52:08.792Z,28.13
2023-06-10T08:55:28.881Z,28.26
2023-06-10T08:58:42.950Z,28.67
2023-06-10T09:01:46.177Z,29.32
2023-06-10T09:04:49.914Z,29.10
2023-06-10T09:07:55.234Z,29.57
2023-06-10T09:10:58.823Z,29.12
2023-06-10T09:14:01.281Z,28.73
2023-06-10T09:17:05.454Z,29.07
2023-06-10T09:20:11.170Z,29.47
2023-06-10T09:23:14.536Z,29.57
2023-06-10T09:26:18.563Z,29.23
2023-06-10T09:29:22.481Z,29.17
2023-06-10T09:32:25.394Z,29.24
2023-06-10T09:35:29.351Z,29.23
2023-06-10T09:38:35.674Z,29.82
2023-06-10T09:41:42.815Z,30.47
2023-06-10T09:44:54.640Z,30.81
2023-06-10T09:47:57.477Z,30.55
2023-06-10T09:51:00.574Z,30.29
2023-06-10T09:54:08.454Z,30.30
2023-06-10T09:57:11.658Z,30.25
2023-06-10T10:00:15.595Z,30.18
2023-06-10T10:03:24.258Z,30.55
2023-06-10T10:06:28.112Z,30.26
2023-06-10T10:09:30.686Z,30.25
2023-06-10T10:12:33.654Z,30.58
2023-06-10T10:15:38.684Z,31.11
2023-06-10T10:18:56.047Z,31.40
2023-06-10T10:22:12.995Z,30.87
2023-06-10T10:25:18.693Z,30.19
2023-06-10T10:28:23.562Z,30.63
2023-06-10T10:31:29.015Z,31.23
2023-06-10T10:34:50.919Z,31.38
2023-06-10T10:37:54.870Z,30.94
2023-06-10T10:41:01.011Z,31.19
2023-06-10T10:44:06.915Z,31.07
2023-06-10T10:47:10.770Z,30.80
2023-06-10T10:50:21.306Z,30.91
2023-06-10T10:53:27.165Z,30.95
2023-06-10T10:56:31.907Z,31.39
2023-06-10T10:59:50.359Z,31.25
2023-06-10T11:02:57.245Z,31.01
2023-06-10T11:06:02.134Z,31.15
2023-06-10T11:09:31.350Z,30.88
2023-06-10T11:12:54.569Z,30.78
2023-06-10T11:16:00.707Z,30.94
2023-06-10T11:19:03.500Z,30.42
2023-06-10T11:22:11.292Z,30.77
2023-06-10T11:25:16.964Z,31.19
2023-06-10T11:28:20.888Z,31.25
2023-06-10T11:31:27.675Z,31.30
2023-06-10T11:34:32.397Z,31.66
2023-06-10T11:37:38.050Z,31.46
2023-06-10T11:40:41.678Z,31.76
2023-06-10T11:43:45.740Z,31.90
2023-06-10T11:46:52.832Z,31.62
2023-06-10T11:49:59.055Z,31.87
2023-06-10T11:53:05.044Z,31.62
2023-06-10T11:56:07.980Z,31.37
2023-06-10T11:59:11.216Z,30.99
2023-06-10T12:02:20.660Z,31.23
2023-06-10T12:05:23.891Z,31.14
2023-06-10T12:08:27.243Z,31.33
2023-06-10T12:11:30.877Z,31.40
2023-06-10T12:14:56.607Z,31.36
2023-06-10T12:18:00.122Z,30.96
2023-06-10T12:21:16.349Z,30.31
2023-06-10T12:24:27.012Z,30.70
2023-06-10T12:27:31.119Z,30.58
2023-06-10T12:30:35.158Z,29.96
2023-06-10T12:33:38.108Z,29.43
2023-06-10T12:37:00.444Z,29.73
2023-06-10T12:40:04.447Z,30.29
2023-06-10T12:43:08.783Z,30.72
2023-06-10T12:46:15.913Z,30.84
2023-06-10T12:49:22.196Z,30.29
2023-06-10T12:52:28.887Z,30.06
2023-06-10T12:55:33.664Z,30.28
2023-06-10T12:58:36.287Z,30.22
2023-06-10T13:01:52.620Z,29.60
2023-06-10T13:05:05.386Z,29.33
2023-06-10T13:08:11.422Z,28.93
2023-06-10T13:11:14.980Z,28.89
2023-06-10T13:14:18.275Z,29.04
2023-06-10T13:17:24.050Z,29.49
2023-06-10T13:20:48.663Z,29.96
2023-06-10T13:23:52.478Z,30.05
2023-06-10T13:26:58.582Z,30.12
2023-06-10T13:30:01.425Z,30.11
2023-06-10T13:33:04.570Z,30.15
2023-06-10T13:36:07.590Z,30.27
2023-06-10T13:39:15.217Z,30.12
2023-06-10T13:43:18.510Z,30.04
2023-06-10T13:46:17.732Z,29.72
2023-06-10T13:49:23.844Z,29.68
2023-06-10T13:52:30.016Z,29.98
2023-06-10T13:55:39.128Z,30.10
2023-06-10T13:59:17.557Z,29.77
2023-06-10T14:02:28.802Z,29.73
2023-06-10T14:05:40.306Z,29.99
2023-06-10T14:08:42.796Z,29.87
2023-06-10T14:11:49.287Z,29.88
2023-06-10T14:15:04.268Z,30.08
2023-06-10T14:18:27.534Z,30.08
2023-06-10T14:22:47.786Z,29.79
2023-06-10T14:25:51.078Z,29.28
2023-06-10T14:28:53.729Z,29.23
2023-06-10T14:31:57.720Z,29.40
2023-06-10T14:35:00.199Z,29.15
2023-06-10T14:38:04.652Z,29.16
2023-06-10T14:41:08.709Z,29.13
2023-06-10T14:44:14.378Z,29.23
2023-06-10T14:47:26.012Z,29.35
2023-06-10T14:50:33.694Z,29.33
2023-06-10T14:53:36.344Z,28.70
2023-06-10T14:56:39.252Z,28.32
2023-06-10T14:59:41.811Z,28.13
2023-06-10T15:03:13.149Z,28.53
2023-06-10T15:06:29.963Z,28.67
2023-06-10T15:09:33.290Z,28.87
2023-06-10T15:12:42.059Z,29.04
2023-06-10T15:15:54.231Z,28.74
2023-06-10T15:18:59.991Z,28.57
2023-06-10T15:22:03.417Z,28.55
2023-06-10T15:28:21.433Z,28.63
2023-06-10T15:31:26.975Z,28.83
2023-06-10T15:34:29.869Z,28.86
2023-06-10T15:37:32.528Z,28.85
2023-06-10T15:40:36.444Z,28.86
2023-06-10T15:43:39.418Z,28.78
2023-06-10T15:46:43.699Z,28.32
2023-06-10T15:50:07.683Z,28.16
2023-06-10T15:53:10.988Z,27.97
2023-06-10T15:56:14.062Z,27.60
2023-06-10T15:59:17.281Z,27.69
2023-06-10T16:02:20.058Z,27.70
2023-06-10T16:05:30.534Z,27.86
2023-06-10T16:08:35.955Z,27.79
2023-06-10T16:11:38.823Z,27.53
2023-06-10T16:14:41.404Z,27.39
2023-06-10T16:17:44.556Z,27.37
2023-06-10T16:20:47.258Z,27.27
2023-06-10T16:23:58.710Z,27.13
2023-06-10T16:27:04.469Z,26.77
2023-06-10T16:30:08.206Z,26.78
2023-06-10T16:33:10.867Z,26.49
2023-06-10T16:36:14.452Z,26.38
2023-06-10T16:39:17.094Z,26.27
2023-06-10T16:42:20.045Z,26.29
2023-06-10T16:45:35.489Z,26.34
2023-06-10T16:48:38.777Z,26.32
2023-06-10T16:51:46.824Z,26.34
2023-06-10T16:54:53.055Z,26.23
2023-06-10T16:58:06.554Z,26.09
2023-06-10T17:01:10.358Z,25.80
2023-06-10T17:04:13.700Z,25.73
2023-06-10T17:07:18.133Z,25.63
2023-06-10T17:10:23.749Z,25.67
2023-06-10T17:13:26.759Z,25.69
2023-06-10T17:16:31.258Z,25.70
2023-06-10T17:19:35.319Z,25.80
2023-06-10T17:22:40.674Z,25.72
2023-06-10T17:25:43.704Z,25.53
2023-06-10T17:28:46.680Z,25.61
2023-06-10T17:31:50.174Z,25.72
2023-06-10T17:34:53.796Z,25.52
2023-06-10T17:37:58.741Z,25.54
2023-06-10T17:41:02.340Z,25.42
2023-06-10T17:44:06.242Z,25.36
2023-06-10T17:47:20.521Z,25.35
2023-06-10T17:50:28.169Z,25.32
2023-06-10T17:53:31.032Z,25.18
2023-06-10T17:56:36.723Z,25.22
2023-06-10T17:59:39.407Z,25.10
2023-06-10T18:02:42.400Z,25.10
2023-06-10T18:05:45.537Z,25.11
2023-06-10T18:08:48.334Z,24.96
2023-06-10T18:11:51.123Z,24.93
2023-06-10T18:15:00.067Z,24.70
2023-06-10T18:18:03.916Z,24.62
2023-06-10T18:21:07.787Z,24.56
2023-06-10T18:24:11.646Z,24.47
2023-06-10T18:27:17.126Z,24.52
2023-06-10T18:30:49.683Z,24.25
2023-06-10T18:34:18.800Z,24.07
2023-06-10T18:37:51.676Z,23.93
2023-06-10T18:41:14.371Z,23.79
2023-06-10T18:44:24.629Z,23.85
2023-06-10T18:47:28.003Z,23.80
2023-06-10T18:50:38.299Z,23.73
2023-06-10T18:53:48.124Z,23.64
2023-06-10T18:56:50.835Z,23.50
2023-06-10T18:59:54.103Z,23.49
2023-06-10T19:02:59.668Z,23.46
2023-06-10T19:06:12.153Z,23.49
2023-06-10T19:10:36.623Z,23.33
2023-06-10T19:13:39.624Z,23.10
2023-06-10T19:16:45.258Z,23.04
2023-06-10T19:19:48.381Z,22.95
2023-06-10T19:22:50.901Z,22.79
2023-06-10T19:25:53.961Z,22.78
2023-06-10T19:28:56.843Z,22.84
2023-06-10T19:32:01.177Z,22.72
2023-06-10T19:35:05.033Z,22.70
2023-06-10T19:38:08.137Z,22.73
2023-06-10T19:41:10.816Z,22.77
2023-06-10T19:44:13.773Z,22.54
2023-06-10T19:47:16.433Z,22.53
2023-06-10T19:50:22.708Z,22.63
2023-06-10T19:53:33.427Z,22.75
2023-06-10T19:56:38.539Z,22.58
2023-06-10T19:59:41.807Z,22.53
2023-06-10T20:02:44.741Z,22.52
2023-06-10T20:05:47.441Z,22.45
2023-06-10T20:08:51.130Z,22.44
2023-06-10T20:11:53.801Z,22.31
2023-06-10T20:14:56.625Z,22.26
2023-06-10T20:17:59.341Z,22.28
2023-06-10T20:21:02.982Z,22.13
2023-06-10T20:24:07.490Z,22.03
2023-06-10T20:27:11.514Z,22.08
2023-06-10T20:30:15.780Z,21.96
2023-06-10T20:33:19.007Z,21.87
2023-06-10T20:36:22.897Z,21.76
2023-06-10T20:39:26.606Z,21.63
2023-06-10T20:42:29.474Z,21.59
2023-06-10T20:45:32.322Z,21.50
2023-06-10T20:48:34.885Z,21.50
2023-06-10T20:51:41.012Z,21.46
2023-06-10T20:54:43.621Z,21.38
2023-06-10T20:57:46.650Z,21.13
2023-06-10T21:00:49.452Z,21.13
2023-06-10T21:03:53.247Z,21.09
2023-06-10T21:06:55.934Z,21.01
2023-06-10T21:09:58.795Z,20.98
2023-06-10T21:13:01.421Z,20.83
2023-06-10T21:16:04.604Z,20.70
2023-06-10T21:19:07.307Z,20.58
2023-06-10T21:22:10.180Z,20.51
2023-06-10T21:25:12.893Z,20.39
2023-06-10T21:28:16.349Z,20.34
2023-06-10T21:31:19.800Z,20.36
2023-06-10T21:34:22.810Z,20.39
2023-06-10T21:37:25.372Z,20.24
2023-06-10T21:40:28.327Z,20.20
2023-06-10T21:43:30.921Z,20.26
2023-06-10T21:46:34.653Z,20.23
2023-06-10T21:49:37.192Z,20.14
2023-06-10T21:52:40.169Z,20.10
2023-06-10T21:55:42.750Z,20.08
2023-06-10T21:58:49.558Z,20.01
2023-06-10T22:01:52.318Z,19.91
2023-06-10T22:04:58.429Z,19.77
2023-06-10T22:08:01.731Z,19.69
2023-06-10T22:11:04.696Z,19.58
2023-06-10T22:14:07.802Z,19.52
2023-06-10T22:17:10.853Z,19.47
2023-06-10T22:20:13.805Z,19.31
2023-06-10T22:23:23.734Z,19.30
2023-06-10T22:26:36.850Z,19.24
2023-06-10T22:29:50.004Z,19.11
2023-06-10T22:32:52.673Z,19.01
2023-06-10T22:35:55.640Z,18.84
2023-06-10T22:38:58.177Z,18.76
2023-06-10T22:42:00.928Z,18.76
2023-06-10T22:45:04.510Z,18.73
2023-06-10T22:48:07.463Z,18.66
2023-06-10T22:51:10.086Z,18.56
2023-06-10T22:54:15.403Z,18.48
2023-06-10T22:57:18.136Z,18.37
2023-06-10T23:00:21.250Z,18.36
2023-06-10T23:03:23.810Z,18.23
2023-06-10T23:06:26.650Z,18.10
2023-06-10T23:09:29.309Z,18.01
2023-06-10T23:12:32.499Z,17.95
2023-06-10T23:15:35.175Z,17.92
2023-06-10T23:18:41.439Z,17.85
2023-06-10T23:21:54.583Z,17.79
2023-06-10T23:24:58.289Z,17.64
2023-06-10T23:28:00.907Z,17.59
2023-06-10T23:31:03.885Z,17.40
2023-06-10T23:34:06.566Z,17.31
2023-06-10T23:37:12.196Z,17.27
2023-06-10T23:40:16.582Z,17.15
2023-06-10T23:43:19.502Z,17.08
2023-06-10T23:46:22.169Z,17.03
2023-06-10T23:49:25.037Z,16.96
2023-06-10T23:52:27.457Z,16.89
2023-06-10T23:55:30.541Z,16.91
2023-06-10T23:58:33.243Z,16.87
